Time;durP1;ratioP1;P1;durP2;ratioP2;P2;SDS_P1;SDS_P2;PMS_P1;PMS_P2;Temp;Humidity;BMP_temperature;BMP_pressure;BME280_temperature;BME280_humidity;BME280_pressure;Samples;Min_cycle;Max_cycle;Signal;HPM_P1;HPM_P2
2022/01/14 00:02:10;;;;;;;4.43;0.85;;;26.00;99.90;;;;;;5025244;28;20449;-64
2022/01/14 00:04:38;;;;;;;5.10;1.00;;;26.10;99.90;;;;;;5031508;28;20017;-65
2022/01/14 00:07:07;;;;;;;10.68;1.92;;;26.30;99.90;;;;;;5018258;28;20032;-65
2022/01/14 00:09:36;;;;;;;7.85;1.38;;;26.30;99.90;;;;;;5019255;28;20080;-65
2022/01/14 00:12:18;;;;;;;6.28;0.82;;;26.40;99.90;;;;;;5032628;28;20034;-65
2022/01/14 00:14:58;;;;;;;5.32;0.88;;;26.40;99.90;;;;;;5027152;28;20028;-65
2022/01/14 00:17:26;;;;;;;7.43;1.13;;;26.40;99.90;;;;;;5026583;28;20430;-65
2022/01/14 00:19:53;;;;;;;6.70;1.05;;;26.50;99.90;;;;;;5028062;28;20033;-64
2022/01/14 00:22:23;;;;;;;6.93;1.00;;;26.40;99.90;;;;;;5029281;28;20028;-65
2022/01/14 00:33:05;;;;;;;5.70;1.30;;;26.30;99.90;;;;;;5032977;28;20040;-65
2022/01/14 00:35:34;;;;;;;5.63;0.70;;;26.70;99.90;;;;;;5029808;28;20026;-66
2022/01/14 00:38:02;;;;;;;6.38;1.08;;;26.40;99.90;;;;;;5023317;28;20112;-65
2022/01/14 00:40:29;;;;;;;5.40;0.80;;;26.50;99.90;;;;;;5028114;28;20041;-65
2022/01/14 00:42:57;;;;;;;6.35;1.02;;;26.30;99.90;;;;;;5021758;28;20034;-65
2022/01/14 00:45:24;;;;;;;6.53;1.42;;;26.40;99.90;;;;;;5024735;28;20056;-65
2022/01/14 00:47:52;;;;;;;9.45;0.90;;;26.80;99.90;;;;;;5009489;28;20625;-65
2022/01/14 00:50:20;;;;;;;3.95;0.82;;;26.80;99.90;;;;;;5023413;28;20021;-65
2022/01/14 00:52:48;;;;;;;6.95;0.80;;;26.50;99.90;;;;;;5019783;28;20029;-65
2022/01/14 00:55:25;;;;;;;4.40;1.13;;;26.10;99.90;;;;;;5016306;28;20041;-65
2022/01/14 01:00:33;;;;;;;8.82;1.95;;;25.90;99.90;;;;;;5034528;28;20124;-65
2022/01/14 01:03:02;;;;;;;4.35;1.00;;;25.70;99.90;;;;;;5053494;28;20029;-65
2022/01/14 01:05:30;;;;;;;2.05;0.80;;;25.70;99.90;;;;;;5038144;28;20022;-66
2022/01/14 01:08:08;;;;;;;6.75;1.63;;;25.60;99.90;;;;;;5027576;28;20113;-66
2022/01/14 01:10:46;;;;;;;5.57;1.27;;;25.80;99.90;;;;;;5027358;28;20025;-66
2022/01/14 01:13:20;;;;;;;21.25;1.55;;;26.10;99.90;;;;;;5033244;28;20072;-65
2022/01/14 01:15:49;;;;;;;4.18;0.98;;;26.20;99.90;;;;;;5032159;28;20022;-66
2022/01/14 01:18:19;;;;;;;8.25;1.60;;;26.20;99.90;;;;;;5033251;28;20366;-66
2022/01/14 01:20:46;;;;;;;5.15;1.30;;;26.30;99.90;;;;;;5031297;28;20026;-66
2022/01/14 01:23:14;;;;;;;6.90;1.00;;;26.40;99.90;;;;;;5028942;28;20116;-66
2022/01/14 01:25:47;;;;;;;6.07;1.02;;;26.50;99.90;;;;;;5028657;28;20032;-65
2022/01/14 01:28:14;;;;;;;9.77;2.30;;;26.70;99.90;;;;;;5033646;28;20390;-66
2022/01/14 01:31:43;;;;;;;10.90;1.92;;;26.80;99.90;;;;;;5032307;28;20025;-66
2022/01/14 01:33:39;;;;;;;4.32;1.17;;;26.90;99.90;;;;;;5035843;28;20049;-66
2022/01/14 01:36:06;;;;;;;7.60;1.40;;;26.60;99.90;;;;;;5030456;28;20040;-66
2022/01/14 01:38:33;;;;;;;7.60;1.20;;;26.50;99.90;;;;;;5032737;28;20507;-66
2022/01/14 01:41:01;;;;;;;7.25;0.70;;;26.60;99.90;;;;;;5029108;28;20030;-66
2022/01/14 01:43:30;;;;;;;13.00;1.42;;;26.70;99.90;;;;;;5030891;28;20028;-66
2022/01/14 01:45:59;;;;;;;5.97;1.25;;;26.80;99.90;;;;;;5031327;28;20033;-65
2022/01/14 01:48:26;;;;;;;5.45;1.38;;;26.60;99.90;;;;;;5012338;28;20042;-66
2022/01/14 01:50:58;;;;;;;7.20;0.85;;;26.80;99.90;;;;;;5028366;28;20061;-66
2022/01/14 01:53:25;;;;;;;4.43;1.67;;;26.70;99.90;;;;;;5031313;28;20025;-66
2022/01/14 01:55:52;;;;;;;3.70;0.75;;;26.70;99.90;;;;;;5030881;28;20029;-66
2022/01/14 01:58:19;;;;;;;4.78;1.08;;;26.60;99.90;;;;;;5032726;28;20033;-65
2022/01/14 02:00:47;;;;;;;4.32;0.73;;;27.00;99.90;;;;;;5027314;28;20022;-65
2022/01/14 02:03:14;;;;;;;4.65;0.60;;;27.20;99.90;;;;;;5011679;28;20105;-66
2022/01/14 02:05:44;;;;;;;6.82;1.10;;;27.20;99.90;;;;;;5027646;28;20045;-66
2022/01/14 02:08:11;;;;;;;2.85;1.00;;;27.50;99.90;;;;;;5031858;28;20033;-66
2022/01/14 02:10:39;;;;;;;6.55;1.30;;;27.60;99.90;;;;;;5016959;28;20034;-66
2022/01/14 02:13:07;;;;;;;5.28;0.73;;;27.40;99.90;;;;;;5012606;28;20018;-66
2022/01/14 02:15:46;;;;;;;4.95;0.77;;;27.50;99.90;;;;;;5026789;28;20036;-66
2022/01/14 02:18:30;;;;;;;4.65;1.10;;;27.10;99.90;;;;;;5032228;28;20032;-66
2022/01/14 02:24:35;;;;;;;6.13;1.35;;;27.60;99.90;;;;;;5031988;28;20143;-66
2022/01/14 02:26:33;;;;;;;6.47;1.08;;;27.30;99.90;;;;;;5028661;28;20037;-65
2022/01/14 02:29:00;;;;;;;7.50;1.10;;;27.50;99.90;;;;;;5023155;28;20030;-66
2022/01/14 02:31:27;;;;;;;7.47;1.20;;;27.60;99.90;;;;;;5032343;28;20037;-66
2022/01/14 02:33:55;;;;;;;2.97;0.68;;;27.50;99.90;;;;;;5026862;28;20029;-66
2022/01/14 02:36:23;;;;;;;6.88;0.95;;;27.30;99.90;;;;;;5029741;28;20041;-66
2022/01/14 02:38:50;;;;;;;5.53;1.45;;;27.30;99.90;;;;;;5035576;28;20029;-66
2022/01/14 02:41:18;;;;;;;2.42;0.75;;;27.30;99.90;;;;;;5031081;28;20017;-66
2022/01/14 02:43:46;;;;;;;4.18;0.98;;;27.10;99.90;;;;;;5016662;28;20026;-67
2022/01/14 02:46:15;;;;;;;9.93;1.10;;;27.00;99.90;;;;;;5034735;28;20429;-65
2022/01/14 02:48:42;;;;;;;7.88;1.27;;;27.10;99.90;;;;;;5029833;28;20132;-65
2022/01/14 02:51:13;;;;;;;2.80;0.70;;;27.20;99.90;;;;;;5020036;28;20037;-66
2022/01/14 02:56:15;;;;;;;6.13;1.00;;;26.90;99.90;;;;;;5034912;28;20034;-66
2022/01/14 02:58:43;;;;;;;5.15;1.02;;;26.90;99.90;;;;;;5036165;28;20074;-66
2022/01/14 03:01:13;;;;;;;4.97;1.25;;;27.20;99.90;;;;;;5035628;28;20087;-66
2022/01/14 03:03:45;;;;;;;4.53;1.15;;;27.20;99.90;;;;;;5034264;28;20095;-66
2022/01/14 03:06:14;;;;;;;8.30;1.90;;;27.10;99.90;;;;;;5021297;28;20511;-67
2022/01/14 03:08:42;;;;;;;6.10;1.23;;;27.10;99.90;;;;;;5016153;28;20021;-66
2022/01/14 03:11:13;;;;;;;3.95;1.00;;;27.00;99.90;;;;;;5030297;28;20038;-66
2022/01/14 03:13:40;;;;;;;4.50;0.88;;;27.20;99.90;;;;;;5016987;28;20104;-67
2022/01/14 03:16:08;;;;;;;9.57;1.25;;;27.00;99.90;;;;;;5023587;28;20030;-67
2022/01/14 03:18:46;;;;;;;5.43;0.93;;;27.10;99.90;;;;;;5021159;28;20071;-67
2022/01/14 03:21:16;;;;;;;7.88;1.05;;;27.10;99.90;;;;;;5023416;28;20103;-67
2022/01/14 03:23:52;;;;;;;6.55;1.45;;;26.90;99.90;;;;;;5015429;28;20034;-67
2022/01/14 03:26:21;;;;;;;5.47;1.00;;;26.90;99.90;;;;;;5029804;28;20493;-67
2022/01/14 03:28:49;;;;;;;4.03;1.00;;;26.80;99.90;;;;;;5021421;28;20026;-67
2022/01/14 03:31:17;;;;;;;9.60;1.50;;;26.70;99.90;;;;;;5020688;28;20033;-67
2022/01/14 03:33:44;;;;;;;7.30;2.17;;;26.80;99.90;;;;;;5016450;28;20022;-67
2022/01/14 03:36:13;;;;;;;7.00;1.63;;;26.90;99.90;;;;;;5022153;28;20022;-67
2022/01/14 03:38:41;;;;;;;6.65;1.33;;;26.80;99.90;;;;;;5031060;28;20417;-67
2022/01/14 03:41:08;;;;;;;6.95;1.23;;;26.60;99.90;;;;;;5023625;28;20461;-66
2022/01/14 03:43:36;;;;;;;8.02;1.35;;;26.70;99.90;;;;;;5020396;28;20034;-67
2022/01/14 03:46:04;;;;;;;6.82;1.30;;;26.90;99.90;;;;;;5027345;28;20108;-67
2022/01/14 03:48:32;;;;;;;6.85;1.70;;;27.00;99.90;;;;;;5025963;28;20046;-67
2022/01/14 03:50:59;;;;;;;9.80;2.17;;;27.10;99.90;;;;;;5028315;28;20079;-67
2022/01/14 03:53:27;;;;;;;6.30;1.48;;;27.20;99.90;;;;;;5024514;28;20033;-67
2022/01/14 03:55:55;;;;;;;6.07;1.55;;;27.40;99.90;;;;;;5031852;28;20041;-66
2022/01/14 03:58:22;;;;;;;14.13;1.38;;;27.30;99.90;;;;;;5022702;28;20044;-66
2022/01/14 04:00:50;;;;;;;8.32;1.27;;;27.10;99.90;;;;;;5028129;28;20041;-65
2022/01/14 04:03:17;;;;;;;11.20;1.70;;;27.00;99.90;;;;;;5032269;28;20025;-68
2022/01/14 04:05:45;;;;;;;6.57;1.40;;;27.10;99.90;;;;;;5039184;28;20025;-66
2022/01/14 04:08:12;;;;;;;12.65;2.25;;;27.00;99.90;;;;;;5019573;28;20029;-66
2022/01/14 04:10:40;;;;;;;6.18;1.55;;;27.10;99.90;;;;;;5024908;28;20033;-68
2022/01/14 04:13:17;;;;;;;9.25;1.60;;;26.90;99.90;;;;;;5027978;28;20040;-66
2022/01/14 04:15:47;;;;;;;7.70;1.30;;;27.00;99.90;;;;;;5028468;28;20035;-67
2022/01/14 04:18:17;;;;;;;6.45;1.63;;;27.10;99.90;;;;;;5031412;28;20029;-68
2022/01/14 04:20:48;;;;;;;10.90;1.95;;;27.00;99.90;;;;;;5021029;28;20030;-66
2022/01/14 04:23:24;;;;;;;6.38;1.48;;;26.90;99.90;;;;;;5021161;28;20030;-64
2022/01/14 04:25:53;;;;;;;8.65;1.67;;;26.80;99.90;;;;;;5027693;28;20033;-67
2022/01/14 04:28:23;;;;;;;13.40;1.92;;;26.70;99.90;;;;;;5032123;28;20029;-65
2022/01/14 04:30:54;;;;;;;7.82;1.42;;;26.60;99.90;;;;;;5019836;28;20634;-65
2022/01/14 04:33:23;;;;;;;7.88;1.17;;;26.50;99.90;;;;;;5024409;28;20026;-66
2022/01/14 04:35:52;;;;;;;8.25;1.67;;;26.70;99.90;;;;;;5016318;28;20363;-65
2022/01/14 04:38:19;;;;;;;8.20;1.15;;;26.70;99.90;;;;;;5027449;28;20091;-65
2022/01/14 04:40:46;;;;;;;10.30;2.08;;;26.90;99.90;;;;;;5023376;28;20108;-65
2022/01/14 04:43:17;;;;;;;10.02;1.55;;;26.90;99.90;;;;;;5026595;28;20049;-65
2022/01/14 04:46:02;;;;;;;9.00;1.63;;;26.90;99.90;;;;;;5030327;28;20027;-65
2022/01/14 04:48:31;;;;;;;6.93;1.25;;;26.80;99.90;;;;;;5028538;28;20041;-66
2022/01/14 04:51:01;;;;;;;7.18;1.80;;;26.80;99.90;;;;;;5027508;28;20037;-65
2022/01/14 04:53:28;;;;;;;5.35;1.83;;;26.90;99.90;;;;;;5013547;28;20030;-67
2022/01/14 04:55:57;;;;;;;6.15;1.52;;;26.80;99.90;;;;;;5026161;28;20569;-66
2022/01/14 04:58:28;;;;;;;6.80;1.50;;;26.70;99.90;;;;;;5019983;28;20026;-66
2022/01/14 05:00:56;;;;;;;6.82;1.35;;;26.60;99.90;;;;;;5025481;28;20390;-66
2022/01/14 05:03:24;;;;;;;7.55;1.58;;;26.60;99.90;;;;;;5016757;28;20040;-66
2022/01/14 05:05:55;;;;;;;10.75;2.03;;;26.50;99.90;;;;;;5022070;28;20034;-65
2022/01/14 05:08:34;;;;;;;10.18;1.60;;;26.50;99.90;;;;;;5026397;28;20033;-66
2022/01/14 05:11:20;;;;;;;5.60;1.10;;;26.40;99.90;;;;;;5024540;28;20510;-65
2022/01/14 05:13:47;;;;;;;8.70;1.85;;;26.20;99.90;;;;;;5010012;28;20664;-67
2022/01/14 05:16:15;;;;;;;7.47;1.88;;;26.30;99.90;;;;;;5017442;28;20026;-64
2022/01/14 05:18:42;;;;;;;11.80;2.35;;;26.30;99.90;;;;;;5021117;28;20025;-64
2022/01/14 05:21:12;;;;;;;7.75;1.52;;;26.20;99.90;;;;;;5032231;28;20044;-64
2022/01/14 05:23:39;;;;;;;9.05;2.83;;;26.10;99.90;;;;;;5028570;28;20470;-64
2022/01/14 05:26:07;;;;;;;6.35;1.77;;;26.10;99.90;;;;;;5013283;28;20022;-66
2022/01/14 05:28:34;;;;;;;8.88;1.70;;;26.10;99.90;;;;;;5026079;28;20026;-64
2022/01/14 05:31:01;;;;;;;9.18;1.98;;;26.00;99.90;;;;;;5026990;28;20032;-64
2022/01/14 05:33:29;;;;;;;4.50;1.35;;;26.00;99.90;;;;;;5029128;28;20026;-65
2022/01/14 05:35:56;;;;;;;6.15;1.60;;;25.90;99.90;;;;;;5021181;28;20083;-65
2022/01/14 05:38:23;;;;;;;6.70;1.15;;;25.80;99.90;;;;;;5027898;28;20036;-65
2022/01/14 05:40:51;;;;;;;10.43;3.55;;;25.80;99.90;;;;;;5026419;28;20041;-64
2022/01/14 05:43:18;;;;;;;5.05;1.48;;;25.70;99.90;;;;;;5025067;28;20108;-65
2022/01/14 05:45:45;;;;;;;7.72;1.50;;;25.70;99.90;;;;;;5025635;28;20113;-65
2022/01/14 05:48:13;;;;;;;7.40;1.52;;;25.70;99.90;;;;;;5017179;28;20141;-64
2022/01/14 05:50:40;;;;;;;8.40;1.40;;;25.70;99.90;;;;;;5029339;28;20453;-64
2022/01/14 05:53:08;;;;;;;12.60;2.50;;;25.70;99.90;;;;;;5031706;28;20033;-64
2022/01/14 05:55:35;;;;;;;10.50;1.60;;;25.60;99.90;;;;;;5026546;28;20029;-65
2022/01/14 05:58:02;;;;;;;9.77;1.42;;;25.60;99.90;;;;;;5013506;28;20501;-65
2022/01/14 06:00:30;;;;;;;12.88;1.80;;;25.50;99.90;;;;;;5025790;28;20017;-65
2022/01/14 06:02:57;;;;;;;13.90;1.48;;;25.50;99.90;;;;;;5024897;28;20394;-65
2022/01/14 06:05:24;;;;;;;10.90;1.88;;;25.50;99.90;;;;;;5017389;28;20030;-65
2022/01/14 06:07:52;;;;;;;12.52;1.45;;;25.50;99.90;;;;;;5018162;28;20506;-66
2022/01/14 06:10:22;;;;;;;10.05;1.50;;;25.50;99.90;;;;;;5023211;28;20065;-65
2022/01/14 06:12:50;;;;;;;10.38;1.40;;;25.50;99.90;;;;;;5021547;28;20414;-65
2022/01/14 06:15:17;;;;;;;8.82;2.13;;;25.50;99.90;;;;;;5021845;28;20021;-65
2022/01/14 06:17:45;;;;;;;7.40;1.33;;;25.40;99.90;;;;;;5014690;28;20050;-65
2022/01/14 06:20:13;;;;;;;14.82;3.25;;;25.30;99.90;;;;;;5017588;28;20108;-66
2022/01/14 06:22:47;;;;;;;8.50;2.53;;;25.20;99.90;;;;;;5022277;28;20049;-65
2022/01/14 06:25:14;;;;;;;11.50;2.60;;;25.20;99.90;;;;;;5022018;28;20112;-65
2022/01/14 06:27:41;;;;;;;10.65;1.98;;;25.20;99.90;;;;;;5024091;28;20026;-65
2022/01/14 06:30:10;;;;;;;12.38;2.13;;;25.20;99.90;;;;;;5027123;28;20037;-65
2022/01/14 06:32:41;;;;;;;10.43;1.92;;;25.10;99.90;;;;;;5032860;28;20501;-65
2022/01/14 06:35:10;;;;;;;11.35;2.35;;;25.20;99.90;;;;;;5026911;28;20025;-63
2022/01/14 06:37:38;;;;;;;11.75;2.13;;;25.20;99.90;;;;;;5036878;28;20390;-63
2022/01/14 06:40:07;;;;;;;10.70;1.55;;;25.20;99.90;;;;;;5026557;28;20049;-63
2022/01/14 06:42:34;;;;;;;9.27;1.85;;;25.30;99.90;;;;;;5031571;28;20036;-63
2022/01/14 06:45:03;;;;;;;15.05;2.30;;;25.30;99.90;;;;;;5030448;28;20033;-64
2022/01/14 06:47:30;;;;;;;12.05;2.17;;;25.40;99.90;;;;;;5034767;28;20107;-65
2022/01/14 06:49:58;;;;;;;13.25;2.03;;;25.40;99.90;;;;;;5024716;28;20034;-64
2022/01/14 06:52:28;;;;;;;13.63;2.75;;;25.40;99.90;;;;;;5024718;28;20028;-64
2022/01/14 06:54:55;;;;;;;10.90;2.20;;;25.40;99.90;;;;;;5026513;28;20389;-64
2022/01/14 06:57:24;;;;;;;8.40;1.42;;;25.40;99.90;;;;;;5028544;28;20029;-64
2022/01/14 06:59:52;;;;;;;13.52;2.33;;;25.30;99.90;;;;;;5023829;28;20045;-64
2022/01/14 07:02:19;;;;;;;11.70;2.45;;;25.20;99.90;;;;;;5025511;28;20030;-64
2022/01/14 07:04:47;;;;;;;12.65;2.20;;;25.20;99.90;;;;;;5017683;28;20069;-64
2022/01/14 07:07:14;;;;;;;10.27;1.63;;;25.20;99.90;;;;;;5025577;28;20025;-64
2022/01/14 07:09:57;;;;;;;14.85;2.13;;;25.20;99.90;;;;;;5029433;28;20041;-64
2022/01/14 07:12:33;;;;;;;7.67;1.60;;;25.20;99.90;;;;;;5026246;28;20026;-64
2022/01/14 07:15:01;;;;;;;16.85;2.17;;;25.20;99.90;;;;;;5023231;28;20010;-64
2022/01/14 07:17:29;;;;;;;7.90;2.05;;;25.10;99.90;;;;;;5017627;28;20504;-64
2022/01/14 07:20:00;;;;;;;11.05;1.77;;;25.10;99.90;;;;;;5020607;28;20137;-64
2022/01/14 07:22:28;;;;;;;9.32;2.08;;;25.10;99.90;;;;;;5022331;28;20608;-64
2022/01/14 07:24:55;;;;;;;10.40;2.63;;;25.20;99.90;;;;;;5022099;28;20036;-64
2022/01/14 07:27:22;;;;;;;9.05;2.60;;;25.20;99.90;;;;;;5020142;28;20029;-66
2022/01/14 07:29:49;;;;;;;10.02;2.42;;;25.20;99.90;;;;;;5023503;28;20571;-65
2022/01/14 07:32:17;;;;;;;10.88;2.60;;;25.20;99.90;;;;;;5025411;28;20030;-65
2022/01/14 07:34:45;;;;;;;62.75;47.25;;;25.20;99.90;;;;;;5016913;28;20034;-66
2022/01/14 07:37:13;;;;;;;15.82;5.38;;;25.20;99.90;;;;;;5016735;28;20117;-64
2022/01/14 07:39:40;;;;;;;17.50;5.18;;;25.20;99.90;;;;;;5023405;28;20076;-65
2022/01/14 07:42:08;;;;;;;21.77;7.50;;;25.10;99.90;;;;;;5018889;28;20108;-64
2022/01/14 07:44:36;;;;;;;16.83;2.58;;;25.20;99.90;;;;;;5023551;28;20312;-65
2022/01/14 07:47:03;;;;;;;7.05;1.98;;;25.10;99.90;;;;;;5023514;28;20049;-64
2022/01/14 07:49:31;;;;;;;9.98;3.55;;;25.10;99.90;;;;;;5022120;28;20018;-64
2022/01/14 07:51:58;;;;;;;12.82;3.05;;;25.00;99.90;;;;;;5019132;28;20029;-64
2022/01/14 07:54:26;;;;;;;11.88;3.00;;;25.00;99.90;;;;;;5023026;28;20053;-65
2022/01/14 07:56:58;;;;;;;18.27;4.80;;;25.00;99.90;;;;;;5025965;28;20032;-66
2022/01/14 07:59:28;;;;;;;11.40;2.13;;;24.90;99.90;;;;;;5020534;28;20026;-66
2022/01/14 08:01:58;;;;;;;11.60;2.30;;;24.90;99.90;;;;;;5025580;28;20108;-66
2022/01/14 08:04:27;;;;;;;9.73;2.50;;;24.90;99.90;;;;;;5031556;28;20032;-66
2022/01/14 08:06:57;;;;;;;13.90;5.43;;;24.90;99.90;;;;;;5029598;28;20108;-65
2022/01/14 08:09:25;;;;;;;13.70;2.80;;;24.90;99.90;;;;;;5030320;28;20037;-65
2022/01/14 08:11:52;;;;;;;10.10;2.45;;;24.80;99.90;;;;;;5018691;28;20041;-66
2022/01/14 08:14:20;;;;;;;16.38;2.60;;;24.80;99.90;;;;;;5014609;28;20029;-66
2022/01/14 08:16:47;;;;;;;11.13;2.85;;;24.90;99.90;;;;;;5016783;28;20037;-65
2022/01/14 08:19:14;;;;;;;14.13;3.40;;;24.80;99.90;;;;;;5016299;28;20076;-66
2022/01/14 08:21:42;;;;;;;13.65;2.55;;;24.80;99.90;;;;;;5017797;28;20049;-65
2022/01/14 08:24:09;;;;;;;12.40;2.88;;;24.80;99.90;;;;;;5029627;28;20390;-64
2022/01/14 08:26:36;;;;;;;12.43;3.40;;;24.80;99.90;;;;;;5024675;28;20069;-66
2022/01/14 08:29:04;;;;;;;10.02;2.40;;;24.80;99.90;;;;;;5014305;28;20030;-66
2022/01/14 08:31:31;;;;;;;15.02;2.28;;;24.80;99.90;;;;;;5020942;28;20041;-66
2022/01/14 08:34:00;;;;;;;10.63;2.47;;;24.80;99.90;;;;;;5033921;28;20029;-66
2022/01/14 08:36:29;;;;;;;11.00;3.45;;;24.70;99.90;;;;;;5034243;28;20458;-65
2022/01/14 08:38:56;;;;;;;11.02;2.38;;;24.70;99.90;;;;;;5033255;28;20096;-64
2022/01/14 08:41:28;;;;;;;10.10;1.83;;;24.70;99.90;;;;;;5033515;28;20017;-65
2022/01/14 08:43:59;;;;;;;12.55;3.08;;;24.70;99.90;;;;;;5029662;28;20171;-65
2022/01/14 08:46:27;;;;;;;12.27;2.28;;;24.60;99.90;;;;;;5022042;28;20022;-66
2022/01/14 08:48:58;;;;;;;14.02;2.53;;;24.60;99.90;;;;;;5023621;28;20136;-65
2022/01/14 08:51:28;;;;;;;13.38;2.92;;;24.60;99.90;;;;;;5025785;28;20103;-65
2022/01/14 08:53:57;;;;;;;15.40;2.78;;;24.60;99.90;;;;;;5022654;28;20056;-65
2022/01/14 08:56:25;;;;;;;18.00;3.88;;;24.60;99.90;;;;;;5025108;28;20022;-65
2022/01/14 08:58:52;;;;;;;12.05;2.97;;;24.60;99.90;;;;;;5012513;28;20471;-65
2022/01/14 09:01:19;;;;;;;11.73;2.83;;;24.50;99.90;;;;;;5019239;28;20068;-65
2022/01/14 09:03:47;;;;;;;12.65;3.20;;;24.50;99.90;;;;;;5031444;28;20033;-65
2022/01/14 09:06:15;;;;;;;11.68;2.63;;;24.50;99.90;;;;;;5032839;28;20016;-65
2022/01/14 09:08:42;;;;;;;12.68;3.22;;;24.50;99.90;;;;;;5028734;28;20478;-65
2022/01/14 09:11:09;;;;;;;12.73;2.45;;;24.40;99.90;;;;;;5020121;28;20075;-65
2022/01/14 09:13:37;;;;;;;19.48;2.67;;;24.40;99.90;;;;;;5032594;28;20032;-65
2022/01/14 09:16:04;;;;;;;15.23;2.72;;;24.40;99.90;;;;;;5033273;28;20033;-66
2022/01/14 09:18:35;;;;;;;15.40;2.92;;;24.40;99.90;;;;;;5032641;28;20497;-65
2022/01/14 09:21:02;;;;;;;11.23;2.50;;;24.40;99.90;;;;;;5018506;28;20033;-65
2022/01/14 09:23:30;;;;;;;12.30;2.97;;;24.40;99.90;;;;;;5022851;28;20092;-65
2022/01/14 09:25:57;;;;;;;12.45;2.50;;;24.30;99.90;;;;;;5024552;28;20038;-65
2022/01/14 09:28:24;;;;;;;13.43;3.08;;;24.20;99.90;;;;;;5013570;28;20367;-65
2022/01/14 09:30:52;;;;;;;11.65;2.33;;;24.20;99.90;;;;;;5024135;28;20517;-65
2022/01/14 09:33:20;;;;;;;19.35;3.67;;;24.20;99.90;;;;;;5022620;28;20087;-65
2022/01/14 09:35:48;;;;;;;15.98;2.88;;;24.20;99.90;;;;;;5015927;28;20029;-65
2022/01/14 09:38:16;;;;;;;8.65;2.10;;;24.20;99.90;;;;;;5028561;28;20505;-65
2022/01/14 09:40:47;;;;;;;16.05;3.75;;;24.20;99.90;;;;;;5031528;28;20092;-65
2022/01/14 09:43:15;;;;;;;15.48;2.70;;;24.10;99.90;;;;;;5031187;28;20026;-65
2022/01/14 09:45:43;;;;;;;7.22;3.28;;;24.10;99.90;;;;;;5026107;28;20025;-65
2022/01/14 09:48:15;;;;;;;15.35;4.35;;;24.10;99.90;;;;;;5019494;28;20053;-65
2022/01/14 09:50:44;;;;;;;13.98;2.97;;;24.10;99.90;;;;;;5013860;28;20721;-65
2022/01/14 09:53:16;;;;;;;11.90;2.65;;;24.20;99.90;;;;;;5012653;28;20474;-65
2022/01/14 09:55:44;;;;;;;15.50;2.90;;;24.20;99.90;;;;;;5012766;28;20037;-65
2022/01/14 09:58:11;;;;;;;13.73;3.10;;;24.20;99.90;;;;;;5021867;28;20835;-65
2022/01/14 10:00:39;;;;;;;22.88;4.88;;;24.20;99.90;;;;;;5032475;28;20382;-65
2022/01/14 10:03:25;;;;;;;14.52;3.28;;;24.20;99.90;;;;;;5012700;28;20119;-65
2022/01/14 10:05:57;;;;;;;14.40;3.47;;;24.10;99.90;;;;;;5014229;28;20168;-65
2022/01/14 10:08:28;;;;;;;10.40;2.88;;;24.10;99.90;;;;;;5012203;28;20060;-65
2022/01/14 10:10:59;;;;;;;18.20;3.60;;;24.10;99.90;;;;;;5016414;28;20494;-65
2022/01/14 10:13:32;;;;;;;16.85;2.85;;;24.10;99.90;;;;;;5012765;28;20073;-65
2022/01/14 10:16:10;;;;;;;15.38;3.17;;;24.10;99.90;;;;;;5029155;28;20040;-65
2022/01/14 10:18:41;;;;;;;13.65;3.70;;;24.00;99.90;;;;;;5023556;28;20044;-65
2022/01/14 10:21:11;;;;;;;14.02;2.30;;;24.00;99.90;;;;;;5032446;28;20037;-66
2022/01/14 10:23:54;;;;;;;15.45;3.20;;;24.00;99.90;;;;;;5023307;28;20021;-65
2022/01/14 10:26:22;;;;;;;18.02;3.33;;;24.00;99.90;;;;;;5031052;28;20029;-65
2022/01/14 10:29:06;;;;;;;23.45;4.07;;;24.00;99.90;;;;;;5029497;28;20087;-65
2022/01/14 10:31:35;;;;;;;12.00;3.67;;;24.00;99.90;;;;;;5022358;28;20126;-65
2022/01/14 10:34:16;;;;;;;16.58;3.30;;;23.90;99.90;;;;;;5014610;28;20030;-66
2022/01/14 10:36:45;;;;;;;15.82;3.05;;;23.90;99.90;;;;;;5018620;28;20026;-65
2022/01/14 10:39:26;;;;;;;17.08;3.13;;;23.90;99.90;;;;;;5020602;28;20025;-66
2022/01/14 10:41:55;;;;;;;20.52;4.10;;;23.90;99.90;;;;;;5020396;28;20033;-66
2022/01/14 10:44:30;;;;;;;22.33;3.47;;;23.90;99.90;;;;;;5022110;28;20037;-65
2022/01/14 10:47:19;;;;;;;11.45;3.10;;;23.80;99.90;;;;;;5023394;28;20045;-65
2022/01/14 10:49:48;;;;;;;19.85;3.67;;;23.80;99.90;;;;;;5011836;28;20029;-66
2022/01/14 10:52:19;;;;;;;10.52;2.53;;;23.70;99.90;;;;;;5027337;28;20022;-66
2022/01/14 10:55:07;;;;;;;16.48;3.55;;;23.70;99.90;;;;;;5011721;28;20140;-65
2022/01/14 10:57:34;;;;;;;16.85;3.40;;;23.70;99.90;;;;;;5024673;28;20037;-65
2022/01/14 11:00:17;;;;;;;11.80;3.20;;;23.70;99.90;;;;;;5033779;28;20515;-65
2022/01/14 11:02:53;;;;;;;24.52;4.07;;;23.70;99.90;;;;;;5024360;28;20021;-65
2022/01/14 11:05:23;;;;;;;18.20;4.15;;;23.70;99.90;;;;;;5021972;28;20501;-65
2022/01/14 11:07:52;;;;;;;19.05;3.45;;;23.60;99.90;;;;;;5016132;28;20026;-65
2022/01/14 11:10:33;;;;;;;22.40;3.53;;;23.60;99.90;;;;;;5025354;28;20049;-65
2022/01/14 11:13:02;;;;;;;17.63;3.78;;;23.60;99.90;;;;;;5017548;28;20041;-65
2022/01/14 11:15:33;;;;;;;23.02;4.25;;;23.60;99.90;;;;;;5019631;28;20100;-66
2022/01/14 11:18:05;;;;;;;20.73;3.75;;;23.50;99.90;;;;;;5021559;28;20522;-65
2022/01/14 11:23:14;;;;;;;20.15;4.00;;;23.50;99.90;;;;;;5018287;28;20018;-65
2022/01/14 11:23:22;;;;;;;25.90;4.18;;;23.50;99.90;;;;;;5017619;28;20038;-65
2022/01/14 11:26:07;;;;;;;24.98;5.13;;;23.40;99.90;;;;;;5017777;28;20033;-65
2022/01/14 11:28:41;;;;;;;18.83;3.85;;;23.40;99.90;;;;;;5015705;28;20697;-65
2022/01/14 11:31:30;;;;;;;21.30;4.05;;;23.40;99.90;;;;;;5015622;28;20371;-65
2022/01/14 11:34:00;;;;;;;24.38;3.95;;;23.40;99.90;;;;;;5024047;28;20402;-65
2022/01/14 11:36:53;;;;;;;23.33;4.15;;;23.40;99.90;;;;;;5033436;28;20037;-65
2022/01/14 11:39:23;;;;;;;15.52;3.10;;;23.30;99.90;;;;;;5023576;28;20021;-65
2022/01/14 11:41:56;;;;;;;19.10;3.95;;;23.30;99.90;;;;;;5033010;28;20034;-65
2022/01/14 11:44:46;;;;;;;14.10;3.13;;;23.30;99.90;;;;;;5032589;28;20041;-66
2022/01/14 11:47:25;;;;;;;15.70;3.83;;;23.30;99.90;;;;;;5015620;28;20050;-66
2022/01/14 11:49:57;;;;;;;19.50;3.75;;;23.30;99.90;;;;;;5035064;28;20018;-66
2022/01/14 11:52:54;;;;;;;23.50;4.53;;;23.30;99.90;;;;;;5029859;28;20030;-65
2022/01/14 11:55:24;;;;;;;21.85;3.80;;;23.30;99.90;;;;;;5021647;28;20041;-66
2022/01/14 11:57:54;;;;;;;17.23;3.95;;;23.20;99.90;;;;;;5033102;28;20092;-66
2022/01/14 12:00:27;;;;;;;22.25;3.90;;;23.20;99.90;;;;;;5035212;28;20018;-66
2022/01/14 12:02:55;;;;;;;20.70;4.10;;;23.20;99.90;;;;;;5030071;28;20025;-66
2022/01/14 12:05:28;;;;;;;28.08;3.53;;;23.20;99.90;;;;;;5030551;28;20042;-66
2022/01/14 12:08:05;;;;;;;17.92;3.30;;;23.20;99.90;;;;;;5014055;28;20033;-66
2022/01/14 12:10:37;;;;;;;16.45;3.05;;;23.10;99.90;;;;;;5014915;28;20026;-66
2022/01/14 12:13:36;;;;;;;20.85;4.60;;;23.10;99.90;;;;;;5015855;28;20030;-66
2022/01/14 12:16:08;;;;;;;18.52;3.58;;;23.10;99.90;;;;;;5019705;28;20028;-66
2022/01/14 12:19:02;;;;;;;24.00;4.43;;;23.10;99.90;;;;;;5014742;28;20731;-66
2022/01/14 12:21:39;;;;;;;16.15;3.53;;;23.10;99.90;;;;;;5014653;28;20029;-66
2022/01/14 12:24:18;;;;;;;20.77;3.88;;;23.10;99.90;;;;;;5014456;28;20031;-66
2022/01/14 12:26:55;;;;;;;27.20;5.53;;;23.10;99.90;;;;;;5014416;28;20513;-66
2022/01/14 12:29:35;;;;;;;16.92;3.88;;;23.10;99.90;;;;;;5018107;28;20030;-66
2022/01/14 12:32:06;;;;;;;20.13;4.82;;;23.10;99.90;;;;;;5024623;28;20037;-65
2022/01/14 12:34:40;;;;;;;30.90;5.38;;;23.00;99.90;;;;;;5029758;28;20391;-65
2022/01/14 12:37:10;;;;;;;19.45;4.07;;;23.10;99.90;;;;;;5018381;28;20047;-66
2022/01/14 12:39:46;;;;;;;22.73;5.03;;;23.00;99.90;;;;;;5024731;28;20026;-66
2022/01/14 12:42:14;;;;;;;20.80;4.00;;;23.00;99.90;;;;;;5013452;28;20022;-66
2022/01/14 12:44:43;;;;;;;26.52;5.85;;;22.90;99.90;;;;;;5025796;28;20108;-65
2022/01/14 12:47:12;;;;;;;13.93;3.70;;;22.90;99.90;;;;;;5023378;28;20038;-66
2022/01/14 12:49:40;;;;;;;25.65;5.03;;;22.90;99.90;;;;;;5033585;28;20025;-65
2022/01/14 12:52:13;;;;;;;26.92;4.20;;;22.80;99.90;;;;;;5033369;28;20045;-65
2022/01/14 12:54:46;;;;;;;20.80;5.10;;;22.80;99.90;;;;;;5034159;28;20392;-65
2022/01/14 12:57:18;;;;;;;22.50;4.30;;;22.90;99.90;;;;;;5028630;28;20163;-66
2022/01/14 12:59:49;;;;;;;22.60;4.57;;;22.90;99.90;;;;;;5033645;28;20496;-66
2022/01/14 13:02:17;;;;;;;22.80;4.20;;;22.90;99.90;;;;;;5030616;28;20029;-65
2022/01/14 13:04:45;;;;;;;21.50;4.10;;;22.90;99.90;;;;;;5028227;28;20444;-65
2022/01/14 13:07:13;;;;;;;18.58;4.22;;;22.90;99.90;;;;;;5031330;28;20446;-66
2022/01/14 13:09:44;;;;;;;18.08;4.07;;;22.90;99.90;;;;;;5033004;28;20083;-66
2022/01/14 13:12:16;;;;;;;17.20;3.55;;;22.80;99.90;;;;;;5033279;28;20502;-66
2022/01/14 13:17:26;;;;;;;22.02;4.18;;;22.80;99.90;;;;;;5012851;28;20046;-66